Tropical Cyclones
[Index]
Main Index Home Page Stock Weather Photos Extreme Storms Discussion Storm News and Storm Chasing Reports Tropical Cyclones / Hurricanes / Typhoons Weather Data and Links Wild Fires / Bushfires Weather Observation Techniques Weather Picture Catalogue Tornado Pictures and Reports Stock Video Footage and DVDs for sale
Season 1994-1995 Tropical Cyclone AGNES Track Map
Season 1994-1995 Summaries: [BoM-AU] [JTWC-AU] [JTWC-SIO] [JTWC-SPAC] [JTWC-SH]
<<- Previous TC | BoM 1994-1995 Season | Next TC ->>

click for intensity scale information  Lat/long Grid: Show Hide

 Date Labels: Show Hide

Bureau of Meteorology Tropical Cyclone Data

Name: AGNES
Number: 777 / 199495_06

16 Apr 1995 18:00 UTC to 22 Apr 1995 12:00 UTC

    date/time    lat    long    hPa   cat  kts
1995-04-16 18   11.3   146.7    995    1    35          
1995-04-17 00   11.8   147.4    990    1    41          
1995-04-17 06   12.1   147.6    985    2    51          
1995-04-17 12   12.3   147.8    975    2    60          
1995-04-17 18   12.5   147.9    975    2    60          
1995-04-18 00   12.8   148.1    970    3    64          
1995-04-18 06   13.0   148.1    960    3    80          
1995-04-18 12   13.1   147.8    945    4    89          
1995-04-18 18   13.0   147.7    945    4    89          
1995-04-19 00   12.8   147.6    945    4    89          
1995-04-19 06   12.9   147.6    945    4    89          
1995-04-19 12   13.1   147.6    955    4    80          
1995-04-19 18   13.1   147.6    955    4    80          
1995-04-20 00   13.1   147.6    970    3    70          
1995-04-20 06   13.1   147.6    970    3    70          
1995-04-20 12   13.1   147.6    970    3    70          
1995-04-20 18   12.6   147.7    975    2    60          
1995-04-21 00   12.1   147.8    980    2    54          
1995-04-21 06   11.8   147.9    985    2    51          
1995-04-21 12   11.6   148.1    985    2    51          
1995-04-21 18   11.1   148.1    985    2    51          
1995-04-22 00   10.8   147.8    985    2    51          
1995-04-22 06   10.5   147.5    990    1    41          
1995-04-22 12   10.1   147.1    995    1    35          
Winds are 10-min average.

Tropical cyclone tracks developed by Michael Bath using data from the Bureau of Meteorology and Google Maps.


[Australian Severe Weather index] [Copyright Notice] [Email Contacts] [Search This Site] [Privacy Policy]
Document: tropical_cyclone_agnes.htm Updated: 30 May 2013